Weather at Benfield Aerodrome

Public forecast

Using degrees Celsius for public forecast. Weather courtesy of forecast.io.

Closest aviation weather report (METAR) to Benfield Aerodrome

Closest report is Casement Air Base, 30.5 nm (56.5 km) ENE.

2024/05/24 01:00 (retrieved 54 minutes ago)

EIME 240100Z 27010KT 9999 OVC025 10/06 Q1016

Closest aviation forecast (TAF) to Benfield Aerodrome

Forecast is more than 6 hours old.

Closest forecast is RAF Fairford, 219.3 nm (406.1 km) ESE.

2024/05/23 15:09 Ammendment (retrieved 11 hours ago)

AMD EGVA 231500Z 2315/2417 28012G20KT 9999 BKN030 QNH2992INS BECMG 2320/2321 27009KT 9999 BKN025 QNH2999INS BECMG 2404/2405 24006KT 9999 FEW030 SCT150 QNH3002INS BECMG 2408/2409 24009KT 9999 BKN040 BKN150 QNH3003INS TX17/2413Z TN08/2405Z LAST NO AMDS AFT 2315 NEXT 2402